Pahoa, HI (96778)

8:45 AM HST on November 23, 2014 (GMT -1000)
Hawaiian Shores Rec. | Change Station
CLOSE
Current Station
Personal Weather Station
Location: Pahoa, HI
Elevation: 217 ft
Nearby Weather Stations

Elev 217 ft 19.54 °N, 154.90 °W | Updated 3 seconds ago

Scattered Clouds
Scattered Clouds
76.3 °F
Feels Like 77 °F
N
0.0
Wind Variable Wind from South
Gusts 1.0 mph

Today
High -- | Low -- °F
--% Chance of Precip.
Yesterday
High -- | Low -- °F
Precip. -- in
6:32 AM 5:39 PM
New Moon, 2% visible
Pressure 30.03 in
Visibility 10.0 miles
Clouds Scattered Clouds 4800 ft
Heat Index 77 °F
Dew Point 72 °F
Humidity 87%
Rainfall 0.00 in
Snow Depth Not available.
UV 1 out of 12
Pollen Not available.
Air Quality Not available.
Flu Activity Not available.
METAR PHTO 231753Z 24006KT 10SM SCT048 21/17 A3003 RMK AO2 SLP169 T02060172 10206 20172 53013 $

More Conditions Fewer Conditions

Pressure 30.03 in
Visibility 10.0 miles
Clouds Scattered Clouds 4800 ft
Heat Index 77 °F
Dew Point 72 °F
Humidity 87%
Rainfall 0.00 in
Snow Depth Not available.
UV 1 out of 12
Pollen Not available.
Air Quality Not available.
Flu Activity Not available.
METAR PHTO 231753Z 24006KT 10SM SCT048 21/17 A3003 RMK AO2 SLP169 T02060172 10206 20172 53013 $

More Conditions Fewer Conditions

10-Day Weather Forecast

Almanac

Astronomy

Nov. 23, 2014 Rise Set
Actual Time
Civil Twilight
Nautical Twilight
Astronomical Twilight
Moon
Length of Visible Light
Length of Day
Tomorrow will be .
, % of the Moon is Illuminated

Today's Extremes

State Highs State Lows

Community

WunderPhotos

Upload Photos

1,773,127 photos uploaded!

WunderBlogs® & News

Nearby

Air Quality

  Air Quality AQ Index Pollutant
Not available.

Snow Depth

Station Depth Elevation

Earthquake Activity

City Distance Mag. Time & Date
Minimum magnitude displayed is 2.5.

Coastal Water Temperatures

Place Temperature

Nearby Weather Stations